Time;durP1;ratioP1;P1;durP2;ratioP2;P2;SDS_P1;SDS_P2;PMS_P1;PMS_P2;Temp;Humidity;BMP_temperature;BMP_pressure;BME280_temperature;BME280_humidity;BME280_pressure;Samples;Min_cycle;Max_cycle;Signal;HPM_P1;HPM_P2
2022/06/16 00:00:38;;;;;;;;;;;;;;;;;;2057467;28;19925;-83
2022/06/16 00:01:38;;;;;;;;;;;;;;;;;;2056754;28;20295;-83
2022/06/16 00:02:40;;;;;;;;;;;;;;;;;;2057118;28;20455;-83
2022/06/16 00:03:40;;;;;;;;;;;;;;;;;;2057419;28;19918;-83
2022/06/16 00:04:46;;;;;;;;;;;;;;;;;;2057019;28;19921;-83
2022/06/16 00:05:46;;;;;;;;;;;;;;;;;;2049544;28;19946;-84
2022/06/16 00:06:46;;;;;;;;;;;;;;;;;;2056855;28;19925;-82
2022/06/16 00:07:47;;;;;;;;;;;;;;;;;;2057451;28;19906;-83
2022/06/16 00:08:47;;;;;;;;;;;;;;;;;;2057355;28;19953;-82
2022/06/16 00:09:47;;;;;;;;;;;;;;;;;;2057437;28;19922;-81
2022/06/16 00:12:06;;;;;;;;;;;;;;;;;;2057521;28;20373;-83
2022/06/16 00:13:06;;;;;;;;;;;;;;;;;;2057605;28;19914;-82
2022/06/16 00:14:10;;;;;;;;;;;;;;;;;;2057244;28;19914;-84
2022/06/16 00:15:12;;;;;;;;;;;;;;;;;;2057331;28;19922;-82
2022/06/16 00:16:12;;;;;;;;;;;;;;;;;;2057288;28;19914;-82
2022/06/16 00:17:12;;;;;;;;;;;;;;;;;;2056677;28;19914;-82
2022/06/16 00:18:12;;;;;;;;;;;;;;;;;;2057049;28;20383;-83
2022/06/16 00:19:13;;;;;;;;;;;;;;;;;;2058291;28;19921;-82
2022/06/16 00:20:13;;;;;;;;;;;;;;;;;;2058597;28;19915;-84
2022/06/16 00:21:15;;;;;;;;;;;;;;;;;;2058826;28;19918;-83
2022/06/16 00:22:15;;;;;;;;;;;;;;;;;;2058971;28;19958;-82
2022/06/16 00:23:15;;;;;;;;;;;;;;;;;;2058868;28;19914;-82
2022/06/16 00:25:47;;;;;;;;;;;;;;;;;;2058943;28;19914;-81
2022/06/16 00:26:47;;;;;;;;;;;;;;;;;;2058808;28;19914;-82
2022/06/16 00:29:10;;;;;;;;;;;;;;;;;;2058796;28;20018;-82
2022/06/16 00:30:19;;;;;;;;;;;;;;;;;;2058874;28;19918;-82
2022/06/16 00:31:30;;;;;;;;;;;;;;;;;;2059060;28;19918;-83
2022/06/16 00:32:35;;;;;;;;;;;;;;;;;;2061010;28;20005;-84
2022/06/16 00:33:35;;;;;;;;;;;;;;;;;;2057643;28;19914;-83
2022/06/16 00:34:36;;;;;;;;;;;;;;;;;;2058318;28;19914;-83
2022/06/16 00:35:38;;;;;;;;;;;;;;;;;;2059033;28;19914;-85
2022/06/16 00:36:39;;;;;;;;;;;;;;;;;;2058357;28;19914;-84
2022/06/16 00:37:39;;;;;;;;;;;;;;;;;;2058146;28;20016;-83
2022/06/16 00:38:40;;;;;;;;;;;;;;;;;;2058433;28;19922;-84
2022/06/16 00:39:43;;;;;;;;;;;;;;;;;;2058541;28;19942;-83
2022/06/16 00:40:44;;;;;;;;;;;;;;;;;;2058129;28;20040;-83
2022/06/16 00:41:44;;;;;;;;;;;;;;;;;;2058565;28;20015;-83
2022/06/16 00:42:47;;;;;;;;;;;;;;;;;;2058270;28;20048;-82
2022/06/16 00:43:47;;;;;;;;;;;;;;;;;;2058442;28;19925;-83
2022/06/16 00:44:50;;;;;;;;;;;;;;;;;;2058354;28;19914;-85
2022/06/16 00:45:56;;;;;;;;;;;;;;;;;;2058251;28;20323;-81
2022/06/16 00:46:56;;;;;;;;;;;;;;;;;;2058198;28;19930;-83
2022/06/16 00:47:57;;;;;;;;;;;;;;;;;;2058252;28;20268;-84
2022/06/16 00:49:03;;;;;;;;;;;;;;;;;;2058213;28;19914;-84
2022/06/16 00:50:05;;;;;;;;;;;;;;;;;;2058415;28;20426;-84
2022/06/16 00:51:11;;;;;;;;;;;;;;;;;;2058766;28;19925;-83
2022/06/16 00:52:13;;;;;;;;;;;;;;;;;;2058824;28;19918;-83
2022/06/16 00:53:13;;;;;;;;;;;;;;;;;;2058357;28;19946;-83
2022/06/16 00:54:13;;;;;;;;;;;;;;;;;;2058327;28;20386;-84
2022/06/16 00:55:15;;;;;;;;;;;;;;;;;;2058226;28;19998;-83
2022/06/16 00:56:17;;;;;;;;;;;;;;;;;;2050270;28;20465;-83
2022/06/16 00:57:21;;;;;;;;;;;;;;;;;;2050222;28;19914;-83
2022/06/16 00:58:22;;;;;;;;;;;;;;;;;;2050501;28;19925;-83
2022/06/16 00:59:23;;;;;;;;;;;;;;;;;;2050226;28;19915;-83
2022/06/16 01:01:24;;;;;;;;;;;;;;;;;;2058713;28;19921;-83
2022/06/16 01:02:26;;;;;;;;;;;;;;;;;;2058845;28;19914;-83
2022/06/16 01:04:51;;;;;;;;;;;;;;;;;;2058621;28;19914;-83
2022/06/16 01:05:51;;;;;;;;;;;;;;;;;;2058111;28;19915;-82
2022/06/16 01:06:52;;;;;;;;;;;;;;;;;;2058147;28;19914;-84
2022/06/16 01:07:54;;;;;;;;;;;;;;;;;;2057961;28;19929;-82
2022/06/16 01:08:56;;;;;;;;;;;;;;;;;;2058013;28;19918;-82
2022/06/16 01:09:59;;;;;;;;;;;;;;;;;;2057974;28;20291;-83
2022/06/16 01:11:03;;;;;;;;;;;;;;;;;;2050509;28;19961;-83
2022/06/16 01:13:44;;;;;;;;;;;;;;;;;;2061211;28;19914;-83
2022/06/16 01:15:02;;;;;;;;;;;;;;;;;;2058508;28;19914;-82
2022/06/16 01:16:08;;;;;;;;;;;;;;;;;;2058518;28;20418;-82
2022/06/16 01:17:14;;;;;;;;;;;;;;;;;;2058485;28;19914;-82
2022/06/16 01:18:18;;;;;;;;;;;;;;;;;;2058423;28;19965;-83
2022/06/16 01:19:27;;;;;;;;;;;;;;;;;;2057990;28;19922;-83
2022/06/16 01:20:54;;;;;;;;;;;;;;;;;;2058377;28;20391;-82
2022/06/16 01:22:00;;;;;;;;;;;;;;;;;;2057124;28;19973;-83
2022/06/16 01:23:01;;;;;;;;;;;;;;;;;;2061019;28;19914;-83
2022/06/16 01:24:04;;;;;;;;;;;;;;;;;;2066068;28;20278;-83
2022/06/16 01:25:11;;;;;;;;;;;;;;;;;;2058501;28;19921;-82
2022/06/16 01:26:21;;;;;;;;;;;;;;;;;;2058741;28;19930;-85
2022/06/16 01:27:24;;;;;;;;;;;;;;;;;;2058457;28;19924;-83
2022/06/16 01:28:26;;;;;;;;;;;;;;;;;;2058685;28;19977;-85
2022/06/16 01:29:49;;;;;;;;;;;;;;;;;;2057954;28;19918;-84
2022/06/16 01:31:10;;;;;;;;;;;;;;;;;;2053141;28;19937;-83
2022/06/16 01:32:17;;;;;;;;;;;;;;;;;;2058127;28;20387;-84
2022/06/16 01:33:19;;;;;;;;;;;;;;;;;;2057765;28;20016;-83
2022/06/16 01:34:34;;;;;;;;;;;;;;;;;;2058079;28;19940;-83
2022/06/16 01:35:40;;;;;;;;;;;;;;;;;;2058486;28;19914;-83
2022/06/16 01:36:51;;;;;;;;;;;;;;;;;;2061724;28;19926;-82
2022/06/16 01:37:59;;;;;;;;;;;;;;;;;;2058467;28;19925;-83
2022/06/16 01:39:05;;;;;;;;;;;;;;;;;;2058529;28;19918;-83
2022/06/16 01:40:08;;;;;;;;;;;;;;;;;;2058041;28;20382;-81
2022/06/16 01:41:20;;;;;;;;;;;;;;;;;;2050260;28;19925;-83
2022/06/16 01:42:28;;;;;;;;;;;;;;;;;;2058254;28;19929;-83
2022/06/16 01:43:31;;;;;;;;;;;;;;;;;;2057978;28;19968;-82
2022/06/16 01:44:38;;;;;;;;;;;;;;;;;;2057950;28;19914;-82
2022/06/16 01:45:38;;;;;;;;;;;;;;;;;;2058468;28;20009;-83
2022/06/16 01:46:40;;;;;;;;;;;;;;;;;;2057919;28;19918;-81
2022/06/16 01:47:45;;;;;;;;;;;;;;;;;;2049967;28;20360;-82
2022/06/16 01:48:49;;;;;;;;;;;;;;;;;;2057902;28;19958;-83
2022/06/16 01:50:10;;;;;;;;;;;;;;;;;;2058415;28;19953;-82
2022/06/16 01:51:13;;;;;;;;;;;;;;;;;;2057986;28;19954;-82
2022/06/16 01:52:20;;;;;;;;;;;;;;;;;;2058314;28;19968;-82
2022/06/16 01:53:24;;;;;;;;;;;;;;;;;;2058003;28;19941;-82
2022/06/16 01:54:34;;;;;;;;;;;;;;;;;;2050619;28;19915;-82
2022/06/16 01:55:38;;;;;;;;;;;;;;;;;;2058396;28;19914;-82
2022/06/16 01:56:41;;;;;;;;;;;;;;;;;;2058416;28;20406;-82
2022/06/16 01:57:46;;;;;;;;;;;;;;;;;;2058424;28;19914;-82
2022/06/16 01:59:08;;;;;;;;;;;;;;;;;;2057813;28;20252;-83
2022/06/16 02:00:09;;;;;;;;;;;;;;;;;;2052598;28;19922;-83
2022/06/16 02:01:14;;;;;;;;;;;;;;;;;;2049869;28;20261;-82
2022/06/16 02:02:15;;;;;;;;;;;;;;;;;;2050292;28;20379;-83
2022/06/16 02:03:23;;;;;;;;;;;;;;;;;;2057913;28;19925;-82
2022/06/16 02:04:27;;;;;;;;;;;;;;;;;;2058646;28;19976;-83
2022/06/16 02:05:45;;;;;;;;;;;;;;;;;;2065428;28;20071;-82
2022/06/16 02:06:48;;;;;;;;;;;;;;;;;;2057693;28;20008;-82
2022/06/16 02:07:55;;;;;;;;;;;;;;;;;;2057749;28;20454;-82
2022/06/16 02:09:06;;;;;;;;;;;;;;;;;;2057576;28;20311;-82
2022/06/16 02:10:15;;;;;;;;;;;;;;;;;;2057877;28;19914;-82
2022/06/16 02:11:15;;;;;;;;;;;;;;;;;;2058231;28;20407;-82
2022/06/16 02:12:55;;;;;;;;;;;;;;;;;;2057691;28;19953;-82
2022/06/16 02:13:50;;;;;;;;;;;;;;;;;;2057685;28;20001;-82
2022/06/16 02:14:51;;;;;;;;;;;;;;;;;;2058163;28;19922;-84
2022/06/16 02:15:58;;;;;;;;;;;;;;;;;;2058170;28;19918;-82
2022/06/16 02:16:59;;;;;;;;;;;;;;;;;;2058173;28;20363;-82
2022/06/16 02:18:00;;;;;;;;;;;;;;;;;;2058252;28;19914;-83
2022/06/16 02:19:01;;;;;;;;;;;;;;;;;;2058196;28;20365;-83
2022/06/16 02:20:02;;;;;;;;;;;;;;;;;;2058240;28;19954;-84
2022/06/16 02:21:09;;;;;;;;;;;;;;;;;;2058111;28;19984;-84
2022/06/16 02:22:11;;;;;;;;;;;;;;;;;;2057675;28;19914;-83
2022/06/16 02:23:20;;;;;;;;;;;;;;;;;;2057719;28;19913;-83
2022/06/16 02:24:22;;;;;;;;;;;;;;;;;;2060883;28;19925;-83
2022/06/16 02:25:22;;;;;;;;;;;;;;;;;;2058001;28;19918;-84
2022/06/16 02:26:23;;;;;;;;;;;;;;;;;;2057490;28;19914;-84
2022/06/16 02:27:23;;;;;;;;;;;;;;;;;;2057494;28;19914;-83
2022/06/16 02:28:24;;;;;;;;;;;;;;;;;;2058004;28;20421;-83
2022/06/16 02:29:34;;;;;;;;;;;;;;;;;;2057291;28;19930;-83
2022/06/16 02:30:38;;;;;;;;;;;;;;;;;;2057606;28;19925;-83
2022/06/16 02:31:41;;;;;;;;;;;;;;;;;;2057446;28;19941;-83
2022/06/16 02:32:51;;;;;;;;;;;;;;;;;;2057535;28;19926;-83
2022/06/16 02:34:00;;;;;;;;;;;;;;;;;;2057852;28;19968;-83
2022/06/16 02:35:09;;;;;;;;;;;;;;;;;;2057407;28;20454;-84
2022/06/16 02:36:24;;;;;;;;;;;;;;;;;;2050331;28;19914;-84
2022/06/16 02:37:36;;;;;;;;;;;;;;;;;;2050749;28;20287;-83
2022/06/16 02:38:55;;;;;;;;;;;;;;;;;;2057611;28;19957;-83
2022/06/16 02:40:02;;;;;;;;;;;;;;;;;;2057965;28;19925;-84
2022/06/16 02:41:08;;;;;;;;;;;;;;;;;;2056811;28;19918;-84
2022/06/16 02:42:29;;;;;;;;;;;;;;;;;;2050191;28;19914;-84
2022/06/16 02:43:38;;;;;;;;;;;;;;;;;;2052329;28;19988;-83
2022/06/16 02:44:52;;;;;;;;;;;;;;;;;;2057342;28;19949;-84
2022/06/16 02:45:55;;;;;;;;;;;;;;;;;;2058111;28;19922;-84
2022/06/16 02:46:55;;;;;;;;;;;;;;;;;;2057385;28;19944;-83
2022/06/16 02:48:13;;;;;;;;;;;;;;;;;;2049240;29;19964;-84
2022/06/16 02:49:32;;;;;;;;;;;;;;;;;;2057657;28;19918;-85
2022/06/16 02:50:36;;;;;;;;;;;;;;;;;;2057500;28;19925;-84
2022/06/16 02:51:48;;;;;;;;;;;;;;;;;;2057786;28;19914;-84
2022/06/16 02:52:51;;;;;;;;;;;;;;;;;;2057585;28;19999;-84
2022/06/16 02:55:00;;;;;;;;;;;;;;;;;;2057082;28;19914;-84
2022/06/16 02:56:07;;;;;;;;;;;;;;;;;;2057195;28;20147;-82
2022/06/16 02:57:10;;;;;;;;;;;;;;;;;;2050005;28;20307;-84
2022/06/16 02:58:13;;;;;;;;;;;;;;;;;;2057040;28;19926;-84
2022/06/16 02:59:15;;;;;;;;;;;;;;;;;;2057263;28;20318;-83
2022/06/16 03:00:19;;;;;;;;;;;;;;;;;;2049521;28;19937;-84
2022/06/16 03:01:20;;;;;;;;;;;;;;;;;;2057457;28;19925;-83
2022/06/16 03:02:21;;;;;;;;;;;;;;;;;;2057453;28;19918;-84
2022/06/16 03:03:27;;;;;;;;;;;;;;;;;;2057397;28;19973;-84
2022/06/16 03:04:33;;;;;;;;;;;;;;;;;;2057957;28;19977;-83
2022/06/16 03:05:33;;;;;;;;;;;;;;;;;;2057847;28;19914;-84
2022/06/16 03:06:34;;;;;;;;;;;;;;;;;;2057771;28;19957;-84
2022/06/16 03:07:37;;;;;;;;;;;;;;;;;;2057709;28;19956;-84
2022/06/16 03:08:40;;;;;;;;;;;;;;;;;;2058050;28;20283;-85
2022/06/16 03:09:40;;;;;;;;;;;;;;;;;;2057770;28;20036;-85
2022/06/16 03:10:53;;;;;;;;;;;;;;;;;;2057687;28;20327;-85
2022/06/16 03:11:53;;;;;;;;;;;;;;;;;;2057513;28;19921;-84
2022/06/16 03:12:56;;;;;;;;;;;;;;;;;;2057838;28;19977;-84
2022/06/16 03:13:56;;;;;;;;;;;;;;;;;;2057702;28;19914;-84
2022/06/16 03:14:57;;;;;;;;;;;;;;;;;;2057169;28;19957;-84
2022/06/16 03:15:59;;;;;;;;;;;;;;;;;;2057212;28;19957;-85
2022/06/16 03:17:03;;;;;;;;;;;;;;;;;;2057645;28;19914;-84
2022/06/16 03:18:07;;;;;;;;;;;;;;;;;;2056909;28;19918;-84
2022/06/16 03:19:07;;;;;;;;;;;;;;;;;;2057154;28;20001;-84
2022/06/16 03:20:08;;;;;;;;;;;;;;;;;;2057732;28;19925;-85
2022/06/16 03:21:08;;;;;;;;;;;;;;;;;;2057852;28;19914;-84
2022/06/16 03:22:11;;;;;;;;;;;;;;;;;;2057565;28;19913;-85
2022/06/16 03:23:15;;;;;;;;;;;;;;;;;;2057345;28;19949;-86
2022/06/16 03:24:17;;;;;;;;;;;;;;;;;;2057617;28;20372;-84
2022/06/16 03:25:18;;;;;;;;;;;;;;;;;;2057536;28;19949;-84
2022/06/16 03:26:18;;;;;;;;;;;;;;;;;;2057640;28;19984;-84
2022/06/16 03:27:18;;;;;;;;;;;;;;;;;;2057478;28;19926;-84
2022/06/16 03:28:18;;;;;;;;;;;;;;;;;;2057476;28;20331;-84
2022/06/16 03:29:19;;;;;;;;;;;;;;;;;;2057546;28;19918;-84
2022/06/16 03:30:19;;;;;;;;;;;;;;;;;;2057357;28;19922;-84
2022/06/16 03:31:19;;;;;;;;;;;;;;;;;;2057530;28;19984;-84
2022/06/16 03:32:20;;;;;;;;;;;;;;;;;;2057620;28;20064;-83
2022/06/16 03:33:22;;;;;;;;;;;;;;;;;;2057651;28;19914;-84
2022/06/16 03:34:23;;;;;;;;;;;;;;;;;;2057072;28;19924;-83
2022/06/16 03:35:24;;;;;;;;;;;;;;;;;;2057012;28;19914;-83
2022/06/16 03:36:24;;;;;;;;;;;;;;;;;;2057506;28;19914;-83
2022/06/16 03:37:25;;;;;;;;;;;;;;;;;;2057154;28;19914;-84
2022/06/16 03:39:35;;;;;;;;;;;;;;;;;;2057363;28;19918;-85
2022/06/16 03:40:35;;;;;;;;;;;;;;;;;;2056727;28;19918;-84
2022/06/16 03:41:35;;;;;;;;;;;;;;;;;;2057048;28;19924;-84
2022/06/16 03:42:36;;;;;;;;;;;;;;;;;;2056896;28;20370;-85
2022/06/16 03:43:37;;;;;;;;;;;;;;;;;;2057087;28;20167;-85
2022/06/16 03:44:37;;;;;;;;;;;;;;;;;;2057045;28;19914;-85
2022/06/16 03:45:40;;;;;;;;;;;;;;;;;;2057108;28;19914;-85
2022/06/16 03:46:41;;;;;;;;;;;;;;;;;;2056940;28;20405;-85
2022/06/16 03:47:41;;;;;;;;;;;;;;;;;;2048831;29;19926;-85
2022/06/16 03:48:41;;;;;;;;;;;;;;;;;;2057011;28;19914;-85
2022/06/16 03:49:44;;;;;;;;;;;;;;;;;;2056916;28;20284;-84
2022/06/16 03:50:44;;;;;;;;;;;;;;;;;;2057559;28;19914;-86
2022/06/16 03:51:45;;;;;;;;;;;;;;;;;;2057321;28;19914;-85
2022/06/16 03:52:45;;;;;;;;;;;;;;;;;;2056775;28;19964;-85
2022/06/16 03:53:45;;;;;;;;;;;;;;;;;;2056816;28;19925;-84
2022/06/16 03:54:48;;;;;;;;;;;;;;;;;;2057208;28;19989;-84
2022/06/16 03:55:48;;;;;;;;;;;;;;;;;;2056849;28;19957;-83
2022/06/16 03:56:49;;;;;;;;;;;;;;;;;;2056924;28;20362;-84
2022/06/16 03:57:52;;;;;;;;;;;;;;;;;;2056457;28;20041;-85
2022/06/16 03:58:53;;;;;;;;;;;;;;;;;;2049161;28;19993;-84
2022/06/16 03:59:53;;;;;;;;;;;;;;;;;;2057041;28;20005;-84
2022/06/16 04:00:53;;;;;;;;;;;;;;;;;;2057299;28;19918;-84
2022/06/16 04:01:56;;;;;;;;;;;;;;;;;;2057284;28;19924;-84
2022/06/16 04:04:18;;;;;;;;;;;;;;;;;;2057615;28;20239;-85
2022/06/16 04:05:18;;;;;;;;;;;;;;;;;;2057005;28;19929;-84
2022/06/16 04:06:21;;;;;;;;;;;;;;;;;;2056731;28;19922;-84
2022/06/16 04:07:24;;;;;;;;;;;;;;;;;;2056850;28;20160;-84
2022/06/16 04:08:24;;;;;;;;;;;;;;;;;;2057393;28;19957;-84
2022/06/16 04:09:24;;;;;;;;;;;;;;;;;;2056637;28;20294;-84
2022/06/16 04:10:27;;;;;;;;;;;;;;;;;;2056662;28;20008;-85
2022/06/16 04:11:27;;;;;;;;;;;;;;;;;;2060257;28;19961;-86
2022/06/16 04:12:30;;;;;;;;;;;;;;;;;;2057205;28;19918;-85
2022/06/16 04:13:30;;;;;;;;;;;;;;;;;;2056749;28;19914;-85
2022/06/16 04:14:30;;;;;;;;;;;;;;;;;;2056681;28;19918;-84
2022/06/16 04:15:31;;;;;;;;;;;;;;;;;;2056655;28;20024;-84
2022/06/16 04:16:32;;;;;;;;;;;;;;;;;;2056789;28;19973;-84
2022/06/16 04:17:33;;;;;;;;;;;;;;;;;;2056629;28;20250;-84
2022/06/16 04:18:33;;;;;;;;;;;;;;;;;;2048665;29;19969;-85
2022/06/16 04:19:34;;;;;;;;;;;;;;;;;;2048757;29;20350;-83
2022/06/16 04:20:34;;;;;;;;;;;;;;;;;;2056788;28;19970;-84
2022/06/16 04:21:40;;;;;;;;;;;;;;;;;;2056885;28;19961;-84
2022/06/16 04:22:41;;;;;;;;;;;;;;;;;;2056657;28;19922;-84
2022/06/16 04:23:41;;;;;;;;;;;;;;;;;;2056886;28;19914;-84
2022/06/16 04:24:42;;;;;;;;;;;;;;;;;;2056763;28;20000;-84
2022/06/16 04:25:42;;;;;;;;;;;;;;;;;;2056707;28;19962;-84
2022/06/16 04:26:45;;;;;;;;;;;;;;;;;;2048828;29;20348;-85
2022/06/16 04:27:45;;;;;;;;;;;;;;;;;;2056780;28;19914;-84
2022/06/16 04:28:48;;;;;;;;;;;;;;;;;;2057243;28;19925;-85
2022/06/16 04:29:51;;;;;;;;;;;;;;;;;;2057534;28;19953;-84
2022/06/16 04:30:51;;;;;;;;;;;;;;;;;;2057326;28;19933;-85
2022/06/16 04:31:53;;;;;;;;;;;;;;;;;;2056653;28;19946;-85
2022/06/16 04:32:57;;;;;;;;;;;;;;;;;;2056870;28;20293;-84
2022/06/16 04:33:58;;;;;;;;;;;;;;;;;;2057273;28;19914;-84
2022/06/16 04:34:58;;;;;;;;;;;;;;;;;;2057243;28;20376;-84
2022/06/16 04:35:58;;;;;;;;;;;;;;;;;;2057398;28;19924;-83
2022/06/16 04:36:59;;;;;;;;;;;;;;;;;;2056633;28;20291;-84
2022/06/16 04:37:59;;;;;;;;;;;;;;;;;;2056683;28;20012;-84
2022/06/16 04:39:00;;;;;;;;;;;;;;;;;;2057068;28;19914;-84
2022/06/16 04:40:01;;;;;;;;;;;;;;;;;;2056666;28;19918;-84
2022/06/16 04:41:01;;;;;;;;;;;;;;;;;;2056737;28;19914;-84
2022/06/16 04:42:02;;;;;;;;;;;;;;;;;;2056767;28;19991;-85
2022/06/16 04:43:02;;;;;;;;;;;;;;;;;;2056762;28;20008;-83
2022/06/16 04:44:02;;;;;;;;;;;;;;;;;;2056978;28;19914;-83
2022/06/16 04:45:03;;;;;;;;;;;;;;;;;;2057163;28;19914;-84
2022/06/16 04:46:05;;;;;;;;;;;;;;;;;;2057167;28;19914;-83
2022/06/16 04:47:06;;;;;;;;;;;;;;;;;;2057044;28;20375;-83
2022/06/16 04:48:07;;;;;;;;;;;;;;;;;;2056087;28;19950;-84
2022/06/16 04:49:09;;;;;;;;;;;;;;;;;;2048508;28;20360;-84
2022/06/16 04:50:10;;;;;;;;;;;;;;;;;;2056633;28;19957;-83
2022/06/16 04:51:12;;;;;;;;;;;;;;;;;;2057406;28;20378;-84
2022/06/16 04:52:12;;;;;;;;;;;;;;;;;;2057179;28;20260;-83
2022/06/16 04:53:12;;;;;;;;;;;;;;;;;;2056599;28;19924;-85
2022/06/16 04:54:12;;;;;;;;;;;;;;;;;;2056576;28;20383;-82
2022/06/16 04:55:13;;;;;;;;;;;;;;;;;;2057062;28;20414;-83
2022/06/16 04:56:13;;;;;;;;;;;;;;;;;;2057137;28;20348;-83
2022/06/16 04:57:14;;;;;;;;;;;;;;;;;;2056853;28;19918;-83
2022/06/16 04:58:14;;;;;;;;;;;;;;;;;;2057027;28;19922;-83
2022/06/16 04:59:14;;;;;;;;;;;;;;;;;;2056864;28;19997;-82
2022/06/16 05:00:15;;;;;;;;;;;;;;;;;;2056398;28;19914;-82
2022/06/16 05:01:16;;;;;;;;;;;;;;;;;;2048484;28;20404;-83
2022/06/16 05:02:16;;;;;;;;;;;;;;;;;;2056484;28;19918;-83
2022/06/16 05:03:17;;;;;;;;;;;;;;;;;;2057230;28;19957;-83
2022/06/16 05:04:17;;;;;;;;;;;;;;;;;;2057214;28;19971;-84
2022/06/16 05:05:25;;;;;;;;;;;;;;;;;;2058587;28;19924;-84
2022/06/16 05:06:31;;;;;;;;;;;;;;;;;;2057831;28;19922;-85
2022/06/16 05:07:31;;;;;;;;;;;;;;;;;;2050829;28;20355;-82
2022/06/16 05:08:31;;;;;;;;;;;;;;;;;;2049832;29;20020;-82
2022/06/16 05:09:32;;;;;;;;;;;;;;;;;;2058097;28;19957;-82
2022/06/16 05:10:32;;;;;;;;;;;;;;;;;;2058669;28;20360;-83
2022/06/16 05:11:33;;;;;;;;;;;;;;;;;;2058749;28;19984;-84
2022/06/16 05:12:33;;;;;;;;;;;;;;;;;;2058732;28;20257;-84
2022/06/16 05:13:33;;;;;;;;;;;;;;;;;;2058831;28;19921;-83
2022/06/16 05:14:37;;;;;;;;;;;;;;;;;;2058600;28;20326;-84
2022/06/16 05:15:37;;;;;;;;;;;;;;;;;;2058010;28;20454;-83
2022/06/16 05:16:37;;;;;;;;;;;;;;;;;;2058069;28;20199;-83
2022/06/16 05:18:06;;;;;;;;;;;;;;;;;;2057714;28;19914;-85
2022/06/16 05:19:20;;;;;;;;;;;;;;;;;;2052185;28;20004;-84
2022/06/16 05:20:29;;;;;;;;;;;;;;;;;;2050856;28;19914;-83
2022/06/16 05:21:29;;;;;;;;;;;;;;;;;;2058189;28;19914;-83
2022/06/16 05:22:30;;;;;;;;;;;;;;;;;;2057832;28;19918;-82
2022/06/16 05:23:30;;;;;;;;;;;;;;;;;;2057532;28;20031;-83
2022/06/16 05:24:30;;;;;;;;;;;;;;;;;;2057970;28;19918;-83
2022/06/16 05:25:31;;;;;;;;;;;;;;;;;;2057556;28;20336;-83
2022/06/16 05:26:33;;;;;;;;;;;;;;;;;;2057318;28;19914;-82
2022/06/16 05:27:34;;;;;;;;;;;;;;;;;;2057684;28;20269;-84
2022/06/16 05:28:36;;;;;;;;;;;;;;;;;;2057796;28;19918;-82
2022/06/16 05:29:38;;;;;;;;;;;;;;;;;;2057928;28;20065;-82
2022/06/16 05:30:42;;;;;;;;;;;;;;;;;;2058533;28;20278;-83
2022/06/16 05:31:43;;;;;;;;;;;;;;;;;;2058247;28;20283;-82
2022/06/16 05:32:43;;;;;;;;;;;;;;;;;;2058235;28;19914;-82
2022/06/16 05:33:44;;;;;;;;;;;;;;;;;;2058388;28;20336;-83
2022/06/16 05:34:44;;;;;;;;;;;;;;;;;;2058455;28;19929;-83
2022/06/16 05:35:54;;;;;;;;;;;;;;;;;;2058382;28;19921;-83
2022/06/16 05:36:54;;;;;;;;;;;;;;;;;;2058363;28;19925;-82
2022/06/16 05:37:54;;;;;;;;;;;;;;;;;;2058399;28;19949;-82
2022/06/16 05:38:54;;;;;;;;;;;;;;;;;;2058712;28;19918;-83
2022/06/16 05:39:55;;;;;;;;;;;;;;;;;;2058574;28;19921;-82
2022/06/16 05:40:59;;;;;;;;;;;;;;;;;;2058273;28;19981;-81
2022/06/16 05:41:59;;;;;;;;;;;;;;;;;;2058444;28;19918;-80
2022/06/16 05:43:00;;;;;;;;;;;;;;;;;;2058480;28;19914;-83
2022/06/16 05:44:00;;;;;;;;;;;;;;;;;;2058265;28;19918;-81
2022/06/16 05:45:00;;;;;;;;;;;;;;;;;;2057790;28;19928;-81
2022/06/16 05:46:04;;;;;;;;;;;;;;;;;;2057838;28;20092;-83
2022/06/16 05:47:07;;;;;;;;;;;;;;;;;;2058381;28;19914;-84
2022/06/16 05:48:08;;;;;;;;;;;;;;;;;;2057711;28;19914;-82
2022/06/16 05:49:10;;;;;;;;;;;;;;;;;;2057879;28;19961;-82
2022/06/16 05:50:13;;;;;;;;;;;;;;;;;;2058344;28;19928;-82
2022/06/16 05:51:14;;;;;;;;;;;;;;;;;;2058277;28;19992;-81
2022/06/16 05:52:18;;;;;;;;;;;;;;;;;;2058041;28;20275;-82
2022/06/16 05:53:18;;;;;;;;;;;;;;;;;;2058497;28;20272;-82
2022/06/16 05:54:18;;;;;;;;;;;;;;;;;;2057788;28;19958;-82
2022/06/16 05:55:19;;;;;;;;;;;;;;;;;;2057693;28;19914;-82
2022/06/16 05:56:19;;;;;;;;;;;;;;;;;;2070168;28;19991;-80
2022/06/16 05:57:19;;;;;;;;;;;;;;;;;;2067900;28;20002;-81
2022/06/16 05:58:19;;;;;;;;;;;;;;;;;;2061629;28;19917;-82
2022/06/16 05:59:20;;;;;;;;;;;;;;;;;;2065711;28;19914;-81
2022/06/16 06:00:23;;;;;;;;;;;;;;;;;;2057275;28;19957;-82
2022/06/16 06:01:23;;;;;;;;;;;;;;;;;;2060779;28;19993;-82
2022/06/16 06:02:26;;;;;;;;;;;;;;;;;;2058874;28;20350;-84
2022/06/16 06:03:26;;;;;;;;;;;;;;;;;;2050418;28;19930;-82
2022/06/16 06:04:27;;;;;;;;;;;;;;;;;;2060670;28;20008;-80
2022/06/16 06:05:28;;;;;;;;;;;;;;;;;;2063623;28;19945;-81
2022/06/16 06:06:28;;;;;;;;;;;;;;;;;;2050417;28;19918;-81
2022/06/16 06:16:25;;;;;;;;;;;;;;;;;;2057402;28;20382;-81
2022/06/16 06:16:57;;;;;;;;;;;;;;;;;;2061082;28;19953;-81
2022/06/16 06:17:57;;;;;;;;;;;;;;;;;;2059859;28;19972;-81
2022/06/16 06:18:59;;;;;;;;;;;;;;;;;;2051943;28;19934;-81
2022/06/16 06:19:59;;;;;;;;;;;;;;;;;;2057578;28;19940;-80
2022/06/16 06:21:02;;;;;;;;;;;;;;;;;;2063881;28;19937;-82
2022/06/16 06:22:13;;;;;;;;;;;;;;;;;;2060586;28;19980;-82
2022/06/16 06:23:14;;;;;;;;;;;;;;;;;;2069242;28;19924;-84
2022/06/16 06:24:14;;;;;;;;;;;;;;;;;;2064809;28;19965;-83
2022/06/16 06:25:20;;;;;;;;;;;;;;;;;;2064953;28;19996;-82
2022/06/16 06:26:20;;;;;;;;;;;;;;;;;;2064808;28;19913;-83
2022/06/16 06:27:24;;;;;;;;;;;;;;;;;;2056659;28;19984;-83
2022/06/16 06:28:33;;;;;;;;;;;;;;;;;;2064676;28;19956;-83
2022/06/16 06:29:36;;;;;;;;;;;;;;;;;;2064569;28;19922;-82
2022/06/16 06:30:36;;;;;;;;;;;;;;;;;;2064791;28;20355;-81
2022/06/16 06:31:37;;;;;;;;;;;;;;;;;;2065087;28;19913;-82
2022/06/16 06:32:37;;;;;;;;;;;;;;;;;;2064531;28;19996;-82
2022/06/16 06:33:37;;;;;;;;;;;;;;;;;;2064787;28;20016;-82
2022/06/16 06:34:38;;;;;;;;;;;;;;;;;;2065029;28;19925;-83
2022/06/16 06:35:38;;;;;;;;;;;;;;;;;;2064818;28;19914;-82
2022/06/16 06:36:39;;;;;;;;;;;;;;;;;;2064605;28;19914;-81
2022/06/16 06:37:43;;;;;;;;;;;;;;;;;;2065092;28;20282;-82
2022/06/16 06:38:43;;;;;;;;;;;;;;;;;;2064238;28;19914;-83
2022/06/16 06:39:43;;;;;;;;;;;;;;;;;;2056570;28;20425;-81
2022/06/16 06:40:44;;;;;;;;;;;;;;;;;;2064511;28;20008;-81
2022/06/16 06:41:44;;;;;;;;;;;;;;;;;;2064872;28;20312;-82
2022/06/16 06:42:47;;;;;;;;;;;;;;;;;;2064863;28;19921;-80
2022/06/16 06:43:47;;;;;;;;;;;;;;;;;;2065164;28;20295;-81
2022/06/16 06:44:51;;;;;;;;;;;;;;;;;;2064567;28;19913;-83
2022/06/16 06:45:53;;;;;;;;;;;;;;;;;;2064685;28;19967;-82
2022/06/16 06:46:54;;;;;;;;;;;;;;;;;;2064914;28;19917;-81
2022/06/16 06:47:54;;;;;;;;;;;;;;;;;;2065380;28;19917;-80
2022/06/16 06:48:55;;;;;;;;;;;;;;;;;;2065114;28;19949;-83
2022/06/16 06:49:55;;;;;;;;;;;;;;;;;;2065234;28;19920;-82
2022/06/16 06:50:56;;;;;;;;;;;;;;;;;;2065361;28;19917;-82
2022/06/16 06:51:56;;;;;;;;;;;;;;;;;;2065146;28;20007;-82
2022/06/16 06:53:04;;;;;;;;;;;;;;;;;;2057156;28;19914;-82
2022/06/16 06:54:05;;;;;;;;;;;;;;;;;;2058093;28;19914;-84
2022/06/16 06:55:05;;;;;;;;;;;;;;;;;;2065204;28;19914;-83
2022/06/16 06:56:05;;;;;;;;;;;;;;;;;;2073319;28;19951;-83
2022/06/16 06:57:06;;;;;;;;;;;;;;;;;;2065260;28;19918;-83
2022/06/16 06:58:09;;;;;;;;;;;;;;;;;;2065220;28;19918;-83
2022/06/16 06:59:18;;;;;;;;;;;;;;;;;;2066153;28;19917;-82
2022/06/16 07:00:20;;;;;;;;;;;;;;;;;;2065237;28;19976;-82
2022/06/16 07:01:20;;;;;;;;;;;;;;;;;;2065224;28;19914;-82
2022/06/16 07:02:21;;;;;;;;;;;;;;;;;;2066227;28;19918;-82
2022/06/16 07:03:21;;;;;;;;;;;;;;;;;;2065689;28;19921;-83
2022/06/16 07:04:22;;;;;;;;;;;;;;;;;;2065391;28;19968;-82
2022/06/16 07:05:23;;;;;;;;;;;;;;;;;;2065597;28;20411;-82
2022/06/16 07:06:23;;;;;;;;;;;;;;;;;;2065645;28;19913;-81
2022/06/16 07:07:24;;;;;;;;;;;;;;;;;;2066140;28;19917;-82
2022/06/16 07:08:24;;;;;;;;;;;;;;;;;;2065130;28;19997;-82
2022/06/16 07:09:24;;;;;;;;;;;;;;;;;;2065208;28;19921;-83
2022/06/16 07:10:25;;;;;;;;;;;;;;;;;;2065913;28;20425;-83
2022/06/16 07:11:25;;;;;;;;;;;;;;;;;;2065721;28;20008;-83
2022/06/16 07:12:26;;;;;;;;;;;;;;;;;;2065125;28;19914;-82
2022/06/16 07:13:29;;;;;;;;;;;;;;;;;;2057051;28;19914;-83
2022/06/16 07:14:30;;;;;;;;;;;;;;;;;;2065350;28;19913;-82
2022/06/16 07:15:31;;;;;;;;;;;;;;;;;;2065376;28;19913;-83
2022/06/16 07:16:32;;;;;;;;;;;;;;;;;;2065220;28;19988;-83
2022/06/16 07:18:35;;;;;;;;;;;;;;;;;;2071897;28;19934;-83
2022/06/16 07:19:36;;;;;;;;;;;;;;;;;;2073180;28;20401;-83
2022/06/16 07:20:37;;;;;;;;;;;;;;;;;;2057510;28;19918;-83
2022/06/16 07:21:47;;;;;;;;;;;;;;;;;;2057833;28;19915;-82
2022/06/16 07:23:11;;;;;;;;;;;;;;;;;;2075180;28;20084;-85
2022/06/16 07:24:13;;;;;;;;;;;;;;;;;;2074286;28;19980;-82
2022/06/16 07:25:15;;;;;;;;;;;;;;;;;;2074691;28;19918;-82
2022/06/16 07:26:27;;;;;;;;;;;;;;;;;;;;;
2022/06/16 07:27:30;;;;;;;;;;;;;;;;;;2073676;28;19924;-83
2022/06/16 07:28:30;;;;;;;;;;;;;;;;;;2065494;28;20410;-83
2022/06/16 07:29:31;;;;;;;;;;;;;;;;;;2065780;28;19918;-83
2022/06/16 07:30:40;;;;;;;;;;;;;;;;;;2074140;28;19914;-84
2022/06/16 07:31:48;;;;;;;;;;;;;;;;;;2076811;28;19914;-83